UAL1738 KIND-CYYZ
Flight info
| Callsign | UAL1738 |
|---|---|
| Flight time | N/A |
| Altitude | 37000 |
| Route | MEARZ7 MZZ DCT FWA DCT CRL DCT QWERI NUBER6 |
| Aircraft | A20N/M-SDE2E3FGHIRWXY/LB1 |
Departure
| Time | 2026-05-07 01:06 |
|---|---|
| Airport | Indianapolis International Airport (KIND) |
Arrival
| Time | N/A |
|---|---|
| Airport | Toronto Pearson International Airport (CYYZ) |
| Time | Latitude | Longitude | Altitude | Speed | Heading |
|---|---|---|---|---|---|
| 2026-05-07 00:49 | 39.72750 | -86.29915 | 783 ft | 0 kts | 166° |
| 2026-05-07 00:56 | 39.72753 | -86.29916 | 783 ft | 4 kts | 166° |
| 2026-05-07 00:57 | 39.72782 | -86.29925 | 783 ft | 4 kts | 154° |
| 2026-05-07 00:57 | 39.72797 | -86.29947 | 783 ft | 0 kts | 86° |
| 2026-05-07 01:00 | 39.72797 | -86.29943 | 783 ft | 2 kts | 91° |
| 2026-05-07 01:00 | 39.72795 | -86.29921 | 783 ft | 0 kts | 99° |
| 2026-05-07 01:01 | 39.72793 | -86.29915 | 783 ft | 4 kts | 110° |
| 2026-05-07 01:01 | 39.72748 | -86.29839 | 787 ft | 18 kts | 135° |
| 2026-05-07 01:01 | 39.72769 | -86.29701 | 786 ft | 21 kts | 47° |
| 2026-05-07 01:01 | 39.72852 | -86.29588 | 789 ft | 0 kts | 44° |
| 2026-05-07 01:02 | 39.72853 | -86.29587 | 789 ft | 1 kts | 44° |
| 2026-05-07 01:02 | 39.72883 | -86.29548 | 790 ft | 12 kts | 44° |
| 2026-05-07 01:03 | 39.72913 | -86.29425 | 791 ft | 18 kts | 117° |
| 2026-05-07 01:03 | 39.72816 | -86.29327 | 789 ft | 1 kts | 187° |
| 2026-05-07 01:03 | 39.72810 | -86.29334 | 789 ft | 4 kts | 209° |
| 2026-05-07 01:03 | 39.72775 | -86.29367 | 787 ft | 0 kts | 223° |
| 2026-05-07 01:05 | 39.72774 | -86.29368 | 787 ft | 2 kts | 223° |
| 2026-05-07 01:05 | 39.72618 | -86.29570 | 782 ft | 68 kts | 224° |
| 2026-05-07 01:06 | 39.72126 | -86.30190 | 777 ft | 127 kts | 224° |
| 2026-05-07 01:06 | 39.71385 | -86.31134 | 885 ft | 159 kts | 226° |
| 2026-05-07 01:06 | 39.70611 | -86.32113 | 1522 ft | 157 kts | 227° |
| 2026-05-07 01:06 | 39.70079 | -86.32782 | 1849 ft | 165 kts | 227° |
| 2026-05-07 01:07 | 39.69230 | -86.33857 | 2320 ft | 178 kts | 227° |
| 2026-05-07 01:07 | 39.68302 | -86.35051 | 2709 ft | 198 kts | 227° |
| 2026-05-07 01:07 | 39.67278 | -86.36368 | 3169 ft | 216 kts | 227° |
| 2026-05-07 01:07 | 39.66156 | -86.37810 | 3663 ft | 234 kts | 227° |
| 2026-05-07 01:08 | 39.65028 | -86.39368 | 4403 ft | 241 kts | 236° |
| 2026-05-07 01:08 | 39.64252 | -86.41365 | 4934 ft | 255 kts | 260° |
| 2026-05-07 01:08 | 39.64326 | -86.43631 | 5831 ft | 254 kts | 288° |
| 2026-05-07 01:08 | 39.65249 | -86.45575 | 6777 ft | 258 kts | 315° |
| 2026-05-07 01:09 | 39.66810 | -86.46722 | 7660 ft | 265 kts | 342° |
| 2026-05-07 01:09 | 39.68680 | -86.46786 | 8539 ft | 278 kts | 8° |
| 2026-05-07 01:09 | 39.70494 | -86.45755 | 9343 ft | 293 kts | 26° |
| 2026-05-07 01:09 | 39.72235 | -86.44317 | 10121 ft | 300 kts | 26° |
| 2026-05-07 01:10 | 39.74106 | -86.42944 | 10478 ft | 319 kts | 21° |
| 2026-05-07 01:10 | 39.76190 | -86.41709 | 10703 ft | 340 kts | 16° |
| 2026-05-07 01:10 | 39.78437 | -86.40572 | 11205 ft | 351 kts | 14° |
| 2026-05-07 01:10 | 39.80751 | -86.39481 | 11888 ft | 357 kts | 13° |
| 2026-05-07 01:11 | 39.83116 | -86.38393 | 12569 ft | 364 kts | 12° |
| 2026-05-07 01:11 | 39.85515 | -86.37294 | 12901 ft | 368 kts | 12° |
| 2026-05-07 01:11 | 39.87919 | -86.36192 | 13360 ft | 373 kts | 12° |
| 2026-05-07 01:11 | 39.90374 | -86.35061 | 14091 ft | 377 kts | 11° |
| 2026-05-07 01:12 | 39.92868 | -86.33910 | 14690 ft | 383 kts | 11° |
| 2026-05-07 01:12 | 39.95401 | -86.32740 | 15307 ft | 389 kts | 11° |
| 2026-05-07 01:12 | 39.97945 | -86.31417 | 15894 ft | 402 kts | 19° |
| 2026-05-07 01:12 | 40.00370 | -86.29458 | 16463 ft | 419 kts | 31° |
| 2026-05-07 01:13 | 40.02570 | -86.26874 | 17039 ft | 431 kts | 38° |
| 2026-05-07 01:13 | 40.04751 | -86.24126 | 17602 ft | 437 kts | 38° |
| 2026-05-07 01:13 | 40.06953 | -86.21365 | 18156 ft | 443 kts | 38° |
| 2026-05-07 01:13 | 40.09196 | -86.18559 | 18652 ft | 449 kts | 38° |
| 2026-05-07 01:14 | 40.11461 | -86.15725 | 19168 ft | 454 kts | 38° |
| 2026-05-07 01:14 | 40.12483 | -86.14445 | 19386 ft | 456 kts | 37° |
| 2026-05-07 01:18 | 40.12552 | -86.14359 | 19399 ft | 456 kts | 37° |
| 2026-05-07 01:18 | 40.14852 | -86.11475 | 19943 ft | 460 kts | 37° |
| 2026-05-07 01:19 | 40.17170 | -86.08568 | 20415 ft | 465 kts | 37° |
| 2026-05-07 01:19 | 40.19518 | -86.05621 | 20911 ft | 470 kts | 37° |
| 2026-05-07 01:19 | 40.21887 | -86.02642 | 21401 ft | 475 kts | 37° |
| 2026-05-07 01:19 | 40.24281 | -85.99629 | 21846 ft | 480 kts | 36° |
| 2026-05-07 01:20 | 40.26699 | -85.96583 | 22315 ft | 485 kts | 36° |
| 2026-05-07 01:20 | 40.29144 | -85.93500 | 22781 ft | 489 kts | 36° |
| 2026-05-07 01:20 | 40.31605 | -85.90393 | 23235 ft | 494 kts | 36° |
| 2026-05-07 01:20 | 40.34096 | -85.87245 | 23667 ft | 499 kts | 36° |
| 2026-05-07 01:21 | 40.36610 | -85.84064 | 24031 ft | 504 kts | 36° |
| 2026-05-07 01:21 | 40.39107 | -85.80902 | 24416 ft | 508 kts | 36° |
| 2026-05-07 01:21 | 40.41660 | -85.77665 | 24793 ft | 512 kts | 36° |
| 2026-05-07 01:21 | 40.44236 | -85.74395 | 25225 ft | 516 kts | 36° |
| 2026-05-07 01:22 | 40.46823 | -85.71108 | 25599 ft | 520 kts | 36° |
| 2026-05-07 01:22 | 40.49461 | -85.67832 | 25947 ft | 520 kts | 31° |
| 2026-05-07 01:22 | 40.52302 | -85.64926 | 26278 ft | 518 kts | 27° |
| 2026-05-07 01:22 | 40.55184 | -85.62046 | 26630 ft | 522 kts | 27° |
| 2026-05-07 01:23 | 40.58084 | -85.59139 | 26969 ft | 527 kts | 27° |
| 2026-05-07 01:23 | 40.61010 | -85.56199 | 27296 ft | 531 kts | 26° |
| 2026-05-07 01:23 | 40.63959 | -85.53230 | 27603 ft | 535 kts | 26° |
| 2026-05-07 01:23 | 40.66889 | -85.50277 | 27893 ft | 538 kts | 26° |
| 2026-05-07 01:24 | 40.69875 | -85.47263 | 28193 ft | 542 kts | 26° |
| 2026-05-07 01:24 | 40.72738 | -85.44371 | 28487 ft | 546 kts | 26° |
| 2026-05-07 01:24 | 40.75765 | -85.41309 | 28775 ft | 550 kts | 26° |
| 2026-05-07 01:24 | 40.78807 | -85.38229 | 29043 ft | 553 kts | 26° |
| 2026-05-07 01:25 | 40.81880 | -85.35114 | 29328 ft | 557 kts | 26° |
| 2026-05-07 01:25 | 40.84963 | -85.31985 | 29608 ft | 560 kts | 26° |
| 2026-05-07 01:25 | 40.88058 | -85.28840 | 29870 ft | 564 kts | 26° |
| 2026-05-07 01:25 | 40.91173 | -85.25669 | 30127 ft | 567 kts | 26° |
| 2026-05-07 01:26 | 40.94266 | -85.22518 | 30393 ft | 569 kts | 26° |
| 2026-05-07 01:26 | 40.97398 | -85.19137 | 30653 ft | 581 kts | 33° |
| 2026-05-07 01:26 | 41.00210 | -85.15197 | 30897 ft | 596 kts | 42° |
| 2026-05-07 01:26 | 41.02823 | -85.11045 | 31181 ft | 597 kts | 42° |
| 2026-05-07 01:27 | 41.05500 | -85.06811 | 31503 ft | 597 kts | 42° |
| 2026-05-07 01:27 | 41.08176 | -85.02586 | 31849 ft | 597 kts | 42° |
| 2026-05-07 01:27 | 41.10844 | -84.98365 | 32197 ft | 596 kts | 41° |
| 2026-05-07 01:27 | 41.13504 | -84.94152 | 32548 ft | 596 kts | 41° |
| 2026-05-07 01:28 | 41.16162 | -84.89936 | 32887 ft | 595 kts | 41° |
| 2026-05-07 01:28 | 41.18817 | -84.85717 | 33216 ft | 594 kts | 41° |
| 2026-05-07 01:28 | 41.21468 | -84.81499 | 33558 ft | 594 kts | 41° |
| 2026-05-07 01:28 | 41.24112 | -84.77285 | 33896 ft | 593 kts | 41° |
| 2026-05-07 01:29 | 41.26752 | -84.73072 | 34193 ft | 591 kts | 41° |
| 2026-05-07 01:29 | 41.29377 | -84.68877 | 34542 ft | 588 kts | 42° |
| 2026-05-07 01:29 | 41.31950 | -84.64759 | 34893 ft | 585 kts | 42° |
| 2026-05-07 01:29 | 41.34541 | -84.60608 | 35222 ft | 582 kts | 42° |
| 2026-05-07 01:30 | 41.37154 | -84.56417 | 35534 ft | 579 kts | 42° |
| 2026-05-07 01:30 | 41.39684 | -84.52354 | 35813 ft | 577 kts | 43° |
| 2026-05-07 01:30 | 41.42244 | -84.48238 | 36084 ft | 575 kts | 43° |
| 2026-05-07 01:30 | 41.44790 | -84.44138 | 36346 ft | 573 kts | 43° |
| 2026-05-07 01:31 | 41.47324 | -84.40051 | 36603 ft | 571 kts | 43° |
| 2026-05-07 01:31 | 41.49848 | -84.35975 | 36839 ft | 570 kts | 43° |
| 2026-05-07 01:31 | 41.52365 | -84.31904 | 37000 ft | 569 kts | 43° |
| 2026-05-07 01:32 | 41.57388 | -84.23761 | 37005 ft | 566 kts | 43° |
| 2026-05-07 01:32 | 41.62387 | -84.15637 | 36998 ft | 566 kts | 44° |
| 2026-05-07 01:33 | 41.67379 | -84.07501 | 36999 ft | 565 kts | 44° |
| 2026-05-07 01:33 | 41.72363 | -83.99355 | 37000 ft | 565 kts | 44° |
| 2026-05-07 01:34 | 41.77331 | -83.91212 | 37001 ft | 564 kts | 44° |
| 2026-05-07 01:34 | 41.82252 | -83.83124 | 36993 ft | 563 kts | 44° |
| 2026-05-07 01:35 | 41.87190 | -83.74988 | 36994 ft | 562 kts | 44° |
| 2026-05-07 01:35 | 41.92111 | -83.66857 | 37000 ft | 561 kts | 44° |
| 2026-05-07 01:36 | 41.97022 | -83.58719 | 36998 ft | 560 kts | 44° |
| 2026-05-07 01:36 | 42.01917 | -83.50587 | 36995 ft | 559 kts | 45° |
| 2026-05-07 01:37 | 42.06664 | -83.42283 | 36995 ft | 561 kts | 49° |
| 2026-05-07 01:37 | 42.11239 | -83.33777 | 36985 ft | 559 kts | 48° |
| 2026-05-07 01:38 | 42.15809 | -83.25299 | 36979 ft | 558 kts | 48° |
| 2026-05-07 01:38 | 42.20351 | -83.16819 | 36984 ft | 558 kts | 49° |
| 2026-05-07 01:39 | 42.24855 | -83.08375 | 36990 ft | 557 kts | 49° |
| 2026-05-07 01:39 | 42.29372 | -82.99884 | 36993 ft | 556 kts | 49° |
| 2026-05-07 01:40 | 42.33875 | -82.91393 | 36996 ft | 555 kts | 49° |
| 2026-05-07 01:40 | 42.38369 | -82.82897 | 36988 ft | 554 kts | 49° |
| 2026-05-07 01:41 | 42.42846 | -82.74409 | 36986 ft | 553 kts | 49° |
| 2026-05-07 01:41 | 42.47278 | -82.65983 | 36964 ft | 552 kts | 49° |
| 2026-05-07 01:42 | 42.51721 | -82.57511 | 36966 ft | 551 kts | 49° |
| 2026-05-07 01:42 | 42.56163 | -82.49018 | 36973 ft | 550 kts | 49° |
| 2026-05-07 01:43 | 42.60587 | -82.40534 | 36986 ft | 550 kts | 50° |
| 2026-05-07 01:43 | 42.64999 | -82.32052 | 36989 ft | 549 kts | 50° |
| 2026-05-07 01:44 | 42.69377 | -82.23629 | 36993 ft | 548 kts | 49° |
| 2026-05-07 01:44 | 42.73902 | -82.15274 | 36985 ft | 547 kts | 48° |
| 2026-05-07 01:45 | 42.78432 | -82.06938 | 36985 ft | 547 kts | 49° |
| 2026-05-07 01:45 | 42.82488 | -81.98087 | 36982 ft | 552 kts | 57° |
| 2026-05-07 01:46 | 42.86229 | -81.89030 | 36989 ft | 552 kts | 57° |
| 2026-05-07 01:46 | 42.89999 | -81.79903 | 36994 ft | 552 kts | 57° |
| 2026-05-07 01:47 | 42.93760 | -81.70754 | 36998 ft | 552 kts | 57° |
| 2026-05-07 01:47 | 42.97502 | -81.61620 | 37002 ft | 552 kts | 57° |
| 2026-05-07 01:48 | 43.01245 | -81.52453 | 36998 ft | 552 kts | 57° |
| 2026-05-07 01:48 | 43.04978 | -81.43280 | 36995 ft | 552 kts | 57° |
| 2026-05-07 01:49 | 43.08686 | -81.34077 | 37003 ft | 552 kts | 58° |
| 2026-05-07 01:49 | 43.12304 | -81.24793 | 36987 ft | 553 kts | 59° |
| 2026-05-07 01:50 | 43.15914 | -81.15501 | 36992 ft | 553 kts | 59° |
| 2026-05-07 01:50 | 43.19506 | -81.06259 | 36993 ft | 552 kts | 59° |
| 2026-05-07 01:50 | 43.21302 | -81.01628 | 36732 ft | 547 kts | 59° |
| 2026-05-07 01:51 | 43.22642 | -80.98168 | 36223 ft | 546 kts | 59° |
| 2026-05-07 01:51 | 43.24421 | -80.93568 | 35342 ft | 547 kts | 59° |
| 2026-05-07 01:51 | 43.26211 | -80.88936 | 34368 ft | 550 kts | 59° |
| 2026-05-07 01:51 | 43.28002 | -80.84295 | 33326 ft | 551 kts | 59° |
| 2026-05-07 01:52 | 43.29785 | -80.79663 | 32508 ft | 545 kts | 59° |
| 2026-05-07 01:52 | 43.31543 | -80.75088 | 31667 ft | 540 kts | 59° |
| 2026-05-07 01:52 | 43.33290 | -80.70532 | 30811 ft | 536 kts | 59° |
| 2026-05-07 01:52 | 43.35016 | -80.66028 | 30027 ft | 529 kts | 60° |
| 2026-05-07 01:53 | 43.36715 | -80.61584 | 29172 ft | 521 kts | 60° |
| 2026-05-07 01:53 | 43.37825 | -80.58677 | 28609 ft | 517 kts | 60° |
| 2026-05-07 01:53 | 43.39489 | -80.54317 | 27771 ft | 509 kts | 60° |
| 2026-05-07 01:53 | 43.41120 | -80.50034 | 26968 ft | 502 kts | 60° |
| 2026-05-07 01:54 | 43.42719 | -80.45832 | 25507 ft | 493 kts | 60° |
| 2026-05-07 01:54 | 43.44309 | -80.41411 | 21944 ft | 540 kts | 64° |
| 2026-05-07 01:54 | 43.45960 | -80.36721 | 20493 ft | 536 kts | 63° |
| 2026-05-07 01:54 | 43.47553 | -80.32209 | 19502 ft | 515 kts | 63° |
| 2026-05-07 01:55 | 43.49038 | -80.27796 | 18582 ft | 501 kts | 68° |
| 2026-05-07 01:55 | 43.50175 | -80.23372 | 18200 ft | 477 kts | 72° |
| 2026-05-07 01:55 | 43.51189 | -80.19140 | 17892 ft | 454 kts | 71° |
| 2026-05-07 01:55 | 43.52172 | -80.15113 | 17621 ft | 432 kts | 71° |
| 2026-05-07 01:56 | 43.53133 | -80.11267 | 17083 ft | 419 kts | 70° |
| 2026-05-07 01:56 | 43.53762 | -80.08811 | 16615 ft | 415 kts | 70° |
| 2026-05-07 01:56 | 43.54732 | -80.05090 | 15906 ft | 409 kts | 69° |
| 2026-05-07 01:56 | 43.55699 | -80.01431 | 15209 ft | 402 kts | 69° |
| 2026-05-07 01:57 | 43.56681 | -79.97738 | 13311 ft | 420 kts | 69° |
| 2026-05-07 01:57 | 43.57740 | -79.93896 | 11214 ft | 436 kts | 74° |
| 2026-05-07 01:57 | 43.58769 | -79.90063 | 10077 ft | 419 kts | 72° |
| 2026-05-07 01:57 | 43.60045 | -79.86532 | 9102 ft | 402 kts | 52° |
| 2026-05-07 01:58 | 43.61914 | -79.83871 | 8785 ft | 371 kts | 33° |
| 2026-05-07 01:58 | 43.64017 | -79.82018 | 8528 ft | 346 kts | 27° |
| 2026-05-07 01:58 | 43.66030 | -79.80386 | 8335 ft | 327 kts | 26° |
| 2026-05-07 01:58 | 43.67908 | -79.78799 | 8203 ft | 315 kts | 28° |
| 2026-05-07 01:59 | 43.69671 | -79.77215 | 8030 ft | 297 kts | 29° |
| 2026-05-07 01:59 | 43.71331 | -79.75653 | 7863 ft | 280 kts | 30° |
| 2026-05-07 01:59 | 43.72881 | -79.74159 | 7706 ft | 263 kts | 30° |
| 2026-05-07 01:59 | 43.74324 | -79.72754 | 7475 ft | 251 kts | 30° |
| 2026-05-07 02:00 | 43.75643 | -79.71167 | 7043 ft | 251 kts | 41° |
| 2026-05-07 02:00 | 43.76832 | -79.69418 | 6577 ft | 248 kts | 41° |
| 2026-05-07 02:00 | 43.78009 | -79.67700 | 6124 ft | 245 kts | 40° |
| 2026-05-07 02:00 | 43.79185 | -79.65993 | 5756 ft | 243 kts | 40° |
| 2026-05-07 02:01 | 43.80345 | -79.64309 | 5421 ft | 241 kts | 40° |
| 2026-05-07 02:01 | 43.81499 | -79.62634 | 5056 ft | 239 kts | 41° |
| 2026-05-07 02:01 | 43.82310 | -79.61457 | 4795 ft | 239 kts | 41° |
| 2026-05-07 02:01 | 43.83437 | -79.59820 | 4445 ft | 236 kts | 41° |
| 2026-05-07 02:02 | 43.84568 | -79.58176 | 4101 ft | 235 kts | 41° |
| 2026-05-07 02:02 | 43.85691 | -79.56542 | 3770 ft | 233 kts | 42° |
| 2026-05-07 02:02 | 43.86806 | -79.54919 | 3414 ft | 232 kts | 43° |
| 2026-05-07 02:02 | 43.87912 | -79.53307 | 3107 ft | 229 kts | 43° |
| 2026-05-07 02:03 | 43.89005 | -79.51711 | 3011 ft | 231 kts | 43° |
| 2026-05-07 02:03 | 43.90109 | -79.50098 | 3013 ft | 230 kts | 43° |
| 2026-05-07 02:03 | 43.91209 | -79.48488 | 3015 ft | 230 kts | 43° |
| 2026-05-07 02:03 | 43.92315 | -79.46867 | 3010 ft | 231 kts | 43° |
| 2026-05-07 02:04 | 43.93417 | -79.45252 | 3018 ft | 231 kts | 43° |
| 2026-05-07 02:04 | 43.94530 | -79.43621 | 3018 ft | 231 kts | 43° |
| 2026-05-07 02:04 | 43.95639 | -79.41995 | 3020 ft | 232 kts | 43° |
| 2026-05-07 02:04 | 43.96747 | -79.40368 | 3021 ft | 232 kts | 43° |
| 2026-05-07 02:05 | 43.97854 | -79.38740 | 3017 ft | 232 kts | 43° |
| 2026-05-07 02:05 | 43.98941 | -79.37116 | 3012 ft | 232 kts | 44° |
| 2026-05-07 02:05 | 43.99773 | -79.35127 | 3020 ft | 249 kts | 73° |
| 2026-05-07 02:05 | 43.99808 | -79.32647 | 3015 ft | 273 kts | 103° |
| 2026-05-07 02:06 | 43.98973 | -79.30299 | 3016 ft | 272 kts | 132° |
| 2026-05-07 02:06 | 43.97506 | -79.28805 | 3010 ft | 254 kts | 162° |
| 2026-05-07 02:06 | 43.95851 | -79.28524 | 3013 ft | 229 kts | 195° |
| 2026-05-07 02:06 | 43.94533 | -79.29379 | 3015 ft | 208 kts | 229° |
| 2026-05-07 02:07 | 43.93692 | -79.31009 | 3014 ft | 208 kts | 244° |
| 2026-05-07 02:07 | 43.92091 | -79.34343 | 3013 ft | 209 kts | 232° |
| 2026-05-07 02:07 | 43.91065 | -79.35793 | 3016 ft | 212 kts | 226° |
| 2026-05-07 02:08 | 43.89947 | -79.37133 | 3016 ft | 213 kts | 223° |
| 2026-05-07 02:08 | 43.88806 | -79.38397 | 3018 ft | 213 kts | 222° |